createdAt,value
2022-11-18T00:00:20.029Z,3.50
2022-11-18T00:02:48.527Z,3.50
2022-11-18T00:05:17.160Z,3.50
2022-11-18T00:07:45.802Z,3.50
2022-11-18T00:10:14.359Z,3.50
2022-11-18T00:13:02.088Z,3.50
2022-11-18T00:15:31.943Z,3.50
2022-11-18T00:18:00.480Z,3.50
2022-11-18T00:20:28.942Z,3.40
2022-11-18T00:22:57.457Z,3.40
2022-11-18T00:25:25.958Z,3.40
2022-11-18T00:27:56.119Z,3.40
2022-11-18T00:30:25.130Z,3.40
2022-11-18T00:32:53.599Z,3.40
2022-11-18T00:35:22.109Z,3.40
2022-11-18T00:37:50.571Z,3.40
2022-11-18T00:40:19.499Z,3.40
2022-11-18T00:42:55.681Z,3.40
2022-11-18T00:45:25.619Z,3.40
2022-11-18T00:47:54.160Z,3.40
2022-11-18T00:50:22.669Z,3.40
2022-11-18T00:52:51.128Z,3.40
2022-11-18T00:55:20.086Z,3.40
2022-11-18T00:57:48.538Z,3.30
2022-11-18T01:00:17.918Z,3.30
2022-11-18T01:02:47.878Z,3.30
2022-11-18T01:05:16.478Z,3.30
2022-11-18T01:07:45.050Z,3.30
2022-11-18T01:10:13.639Z,3.20
2022-11-18T01:12:59.451Z,3.20
2022-11-18T01:15:28.039Z,3.10
2022-11-18T01:17:57.970Z,3.10
2022-11-18T01:20:26.942Z,3.10
2022-11-18T01:22:55.458Z,3.00
2022-11-18T01:25:23.920Z,3.00
2022-11-18T01:27:52.498Z,2.90
2022-11-18T01:30:21.059Z,2.90
2022-11-18T01:32:49.709Z,2.80
2022-11-18T01:35:19.579Z,2.80
2022-11-18T01:37:48.122Z,2.80
2022-11-18T01:40:17.089Z,2.80
2022-11-18T01:42:45.599Z,2.80
2022-11-18T01:45:28.120Z,2.90
2022-11-18T01:48:02.479Z,2.90
2022-11-18T01:50:34.109Z,2.90
2022-11-18T01:53:07.079Z,2.90
2022-11-18T01:55:39.149Z,2.90
2022-11-18T01:58:13.969Z,2.90
2022-11-18T02:00:43.350Z,3.00
2022-11-18T02:03:12.234Z,3.00
2022-11-18T02:05:45.236Z,3.00
2022-11-18T02:08:14.528Z,3.00
2022-11-18T02:10:43.218Z,2.90
2022-11-18T02:13:12.848Z,2.90
2022-11-18T02:15:50.519Z,2.90
2022-11-18T02:18:28.531Z,2.90
2022-11-18T02:21:07.613Z,2.90
2022-11-18T02:24:01.469Z,2.90
2022-11-18T02:27:05.411Z,2.90
2022-11-18T02:29:43.446Z,2.90
2022-11-18T02:32:18.006Z,2.80
2022-11-18T02:34:53.189Z,2.80
2022-11-18T02:37:26.578Z,2.80
2022-11-18T02:39:59.579Z,2.80
2022-11-18T02:42:30.691Z,2.80
2022-11-18T02:45:07.729Z,2.80
2022-11-18T02:47:37.659Z,2.80
2022-11-18T02:50:10.479Z,2.80
2022-11-18T02:52:39.903Z,2.80
2022-11-18T02:55:11.640Z,2.70
2022-11-18T02:57:41.250Z,2.70
2022-11-18T03:00:12.576Z,2.70
2022-11-18T03:02:46.283Z,2.70
2022-11-18T03:05:21.221Z,2.70
2022-11-18T03:07:55.668Z,2.60
2022-11-18T03:10:27.090Z,2.60
2022-11-18T03:13:05.701Z,2.60
2022-11-18T03:15:41.786Z,2.60
2022-11-18T03:18:20.920Z,2.60
2022-11-18T03:20:52.829Z,2.50
2022-11-18T03:23:29.579Z,2.50
2022-11-18T03:26:03.706Z,2.50
2022-11-18T03:28:37.456Z,2.50
2022-11-18T03:31:11.980Z,2.60
2022-11-18T03:33:45.758Z,2.60
2022-11-18T03:36:17.291Z,2.50
2022-11-18T03:38:49.691Z,2.50
2022-11-18T03:41:21.550Z,2.50
2022-11-18T03:43:54.920Z,2.50
2022-11-18T03:46:30.040Z,2.50
2022-11-18T03:49:00.322Z,2.60
2022-11-18T03:51:34.048Z,2.60
2022-11-18T03:54:08.739Z,2.60
2022-11-18T03:56:42.981Z,2.50
2022-11-18T03:59:16.682Z,2.50
2022-11-18T04:01:53.454Z,2.60
2022-11-18T04:04:22.879Z,2.60
2022-11-18T04:06:56.105Z,2.60
2022-11-18T04:09:28.717Z,2.60
2022-11-18T04:12:03.822Z,2.60
2022-11-18T04:14:34.501Z,2.50
2022-11-18T04:17:09.249Z,2.60
2022-11-18T04:19:38.340Z,2.50
2022-11-18T04:22:07.527Z,2.50
2022-11-18T04:24:36.230Z,2.50
2022-11-18T04:27:05.678Z,2.50
2022-11-18T04:29:35.099Z,2.50
2022-11-18T04:32:06.040Z,2.40
2022-11-18T04:34:34.859Z,2.40
2022-11-18T04:37:03.490Z,2.40
2022-11-18T04:39:32.030Z,2.40
2022-11-18T04:42:00.686Z,2.40
2022-11-18T04:44:30.510Z,2.40
2022-11-18T04:47:00.610Z,2.40
2022-11-18T04:49:31.440Z,2.40
2022-11-18T04:52:00.342Z,2.40
2022-11-18T04:54:29.633Z,2.40
2022-11-18T04:56:58.340Z,2.40
2022-11-18T04:59:29.040Z,2.40
2022-11-18T05:01:58.861Z,2.40
2022-11-18T05:04:31.558Z,2.40
2022-11-18T05:07:00.924Z,2.40
2022-11-18T05:09:31.998Z,2.40
2022-11-18T05:12:19.110Z,2.40
2022-11-18T05:14:50.556Z,2.30
2022-11-18T05:17:20.388Z,2.30
2022-11-18T05:19:50.232Z,2.30
2022-11-18T05:22:18.710Z,2.30
2022-11-18T05:24:47.312Z,2.30
2022-11-18T05:27:16.482Z,2.30
2022-11-18T05:29:45.100Z,2.30
2022-11-18T05:32:13.828Z,2.30
2022-11-18T05:34:43.230Z,2.30
2022-11-18T05:37:13.343Z,2.30
2022-11-18T05:39:41.882Z,2.30
2022-11-18T05:42:28.821Z,2.30
2022-11-18T05:44:58.768Z,2.30
2022-11-18T05:47:27.851Z,2.30
2022-11-18T05:49:56.388Z,2.30
2022-11-18T05:52:29.839Z,2.40
2022-11-18T05:54:58.459Z,2.30
2022-11-18T05:57:26.935Z,2.30
2022-11-18T05:59:55.429Z,2.30
2022-11-18T06:02:25.622Z,2.40
2022-11-18T06:04:58.592Z,2.30
2022-11-18T06:07:32.530Z,2.30
2022-11-18T06:10:05.428Z,2.30
2022-11-18T06:12:38.470Z,2.30
2022-11-18T06:15:12.770Z,2.30
2022-11-18T06:17:45.659Z,2.30
2022-11-18T06:20:14.658Z,2.30
2022-11-18T06:22:46.709Z,2.30
2022-11-18T06:25:16.134Z,2.30
2022-11-18T06:27:45.469Z,2.30
2022-11-18T06:30:15.336Z,2.30
2022-11-18T06:32:43.978Z,2.30
2022-11-18T06:35:12.655Z,2.30
2022-11-18T06:37:41.202Z,2.30
2022-11-18T06:40:13.023Z,2.30
2022-11-18T06:42:59.535Z,2.40
2022-11-18T06:45:28.157Z,2.30
2022-11-18T06:47:57.565Z,2.40
2022-11-18T06:50:26.271Z,2.40
2022-11-18T06:52:54.959Z,2.40
2022-11-18T06:55:24.843Z,2.40
2022-11-18T06:57:53.410Z,2.40
2022-11-18T07:00:22.200Z,2.40
2022-11-18T07:02:50.761Z,2.40
2022-11-18T07:05:19.260Z,2.40
2022-11-18T07:07:47.976Z,2.50
2022-11-18T07:10:16.951Z,2.50
2022-11-18T07:12:46.921Z,2.50
2022-11-18T07:15:15.479Z,2.50
2022-11-18T07:17:44.072Z,2.50
2022-11-18T07:20:13.050Z,2.50
2022-11-18T07:22:41.600Z,2.40
2022-11-18T07:25:11.072Z,2.50
2022-11-18T07:27:39.577Z,2.40
2022-11-18T07:30:10.679Z,2.50
2022-11-18T07:32:39.160Z,2.40
2022-11-18T07:35:08.570Z,2.50
2022-11-18T07:37:37.057Z,2.50
2022-11-18T07:40:06.430Z,2.50
2022-11-18T07:42:42.863Z,2.50
2022-11-18T07:45:13.939Z,2.50
2022-11-18T07:47:42.460Z,2.50
2022-11-18T07:50:11.212Z,2.50
2022-11-18T07:52:39.949Z,2.50
2022-11-18T07:55:09.120Z,2.50
2022-11-18T07:57:37.690Z,2.50
2022-11-18T08:00:07.180Z,2.50
2022-11-18T08:02:37.151Z,2.50
2022-11-18T08:05:06.362Z,2.50
2022-11-18T08:07:34.969Z,2.50
2022-11-18T08:10:04.289Z,2.40
2022-11-18T08:12:32.888Z,2.40
2022-11-18T08:15:01.818Z,2.50
2022-11-18T08:17:30.349Z,2.40
2022-11-18T08:20:00.483Z,2.50
2022-11-18T08:22:29.509Z,2.50
2022-11-18T08:24:58.000Z,2.50
2022-11-18T08:27:26.650Z,2.50
2022-11-18T08:29:55.150Z,2.50
2022-11-18T08:32:23.740Z,2.50
2022-11-18T08:34:52.308Z,2.50
2022-11-18T08:37:22.379Z,2.50
2022-11-18T08:39:50.982Z,2.50
2022-11-18T08:42:24.486Z,2.60
2022-11-18T08:44:53.540Z,2.60
2022-11-18T08:47:22.105Z,2.70
2022-11-18T08:49:50.634Z,2.70
2022-11-18T08:52:19.175Z,2.70
2022-11-18T08:54:49.028Z,2.80
2022-11-18T08:57:18.196Z,2.90
2022-11-18T08:59:46.680Z,2.90
2022-11-18T09:02:15.829Z,2.90
2022-11-18T09:04:44.377Z,3.00
2022-11-18T09:07:12.980Z,3.00
2022-11-18T09:09:41.660Z,3.00
2022-11-18T09:12:14.952Z,3.10
2022-11-18T09:17:32.390Z,3.20
2022-11-18T09:20:00.923Z,3.40
2022-11-18T09:22:29.389Z,3.50
2022-11-18T09:24:57.891Z,3.50
2022-11-18T09:27:27.754Z,3.60
2022-11-18T09:29:56.249Z,3.60
2022-11-18T09:32:24.830Z,3.50
2022-11-18T09:34:53.424Z,3.50
2022-11-18T09:37:22.634Z,3.60
2022-11-18T09:39:51.379Z,3.60
2022-11-18T09:42:41.431Z,3.60
2022-11-18T09:45:24.749Z,3.60
2022-11-18T09:47:58.874Z,3.60
2022-11-18T09:50:48.559Z,3.70
2022-11-18T09:53:21.200Z,3.70
2022-11-18T09:55:51.348Z,3.80
2022-11-18T09:58:29.925Z,3.80
2022-11-18T10:00:58.563Z,3.80
2022-11-18T10:03:30.104Z,3.80
2022-11-18T10:06:03.860Z,3.90
2022-11-18T10:08:37.996Z,4.00
2022-11-18T10:11:12.408Z,4.00
2022-11-18T10:13:57.747Z,4.00
2022-11-18T10:16:43.909Z,4.00
2022-11-18T10:19:20.868Z,4.10
2022-11-18T10:21:59.348Z,4.30
2022-11-18T10:24:34.417Z,4.40
2022-11-18T10:27:03.692Z,4.50
2022-11-18T10:29:33.611Z,4.50
2022-11-18T10:32:05.484Z,4.60
2022-11-18T10:34:34.908Z,4.80
2022-11-18T10:37:05.991Z,5.00
2022-11-18T10:39:34.752Z,5.10
2022-11-18T10:42:05.819Z,5.20
2022-11-18T10:44:41.035Z,5.20
2022-11-18T10:47:24.859Z,5.20
2022-11-18T10:49:53.816Z,5.10
2022-11-18T10:52:22.514Z,5.00
2022-11-18T10:55:22.436Z,4.90
2022-11-18T10:57:55.015Z,4.90
2022-11-18T11:00:43.462Z,4.90
2022-11-18T11:03:34.465Z,4.90
2022-11-18T11:06:29.127Z,4.90
2022-11-18T11:08:59.113Z,4.80
2022-11-18T11:11:30.230Z,4.70
2022-11-18T11:14:20.711Z,4.60
2022-11-18T11:16:57.959Z,4.50
2022-11-18T11:19:32.743Z,4.50
2022-11-18T11:22:01.374Z,4.50
2022-11-18T11:24:30.305Z,4.50
2022-11-18T11:30:10.020Z,4.50
2022-11-18T11:33:11.669Z,4.50
2022-11-18T11:35:50.368Z,4.50
2022-11-18T11:38:27.320Z,4.60
2022-11-18T11:41:07.484Z,4.60
2022-11-18T11:43:47.398Z,4.70
2022-11-18T11:46:28.309Z,4.70
2022-11-18T11:49:16.527Z,4.70
2022-11-18T11:51:53.470Z,4.80
2022-11-18T11:54:46.663Z,4.60
2022-11-18T11:57:26.490Z,4.60
2022-11-18T12:00:02.825Z,4.60
2022-11-18T12:02:52.219Z,4.60
2022-11-18T12:05:27.680Z,4.60
2022-11-18T12:07:59.996Z,4.50
2022-11-18T12:10:45.030Z,4.30
2022-11-18T12:13:25.801Z,4.20
2022-11-18T12:16:05.383Z,4.10
2022-11-18T12:18:40.847Z,4.10
2022-11-18T12:21:09.652Z,4.00
2022-11-18T12:23:39.593Z,4.10
2022-11-18T12:26:10.497Z,4.20
2022-11-18T12:28:42.368Z,4.20
2022-11-18T12:31:36.111Z,4.30
2022-11-18T12:34:21.550Z,4.50
2022-11-18T12:36:50.111Z,4.60
2022-11-18T12:39:58.981Z,4.70
2022-11-18T12:43:00.986Z,4.80
2022-11-18T12:46:00.394Z,4.80
2022-11-18T12:48:42.880Z,4.90
2022-11-18T12:51:41.839Z,5.00
2022-11-18T12:54:29.381Z,4.90
2022-11-18T12:57:00.904Z,5.00
2022-11-18T12:59:33.386Z,4.90
2022-11-18T13:02:19.948Z,4.80
2022-11-18T13:05:05.745Z,4.70
2022-11-18T13:08:09.751Z,4.70
2022-11-18T13:10:45.470Z,4.60
2022-11-18T13:13:24.471Z,4.50
2022-11-18T13:16:12.712Z,4.50
2022-11-18T13:18:52.523Z,4.40
2022-11-18T13:21:44.222Z,4.30
2022-11-18T13:24:16.780Z,4.20
2022-11-18T13:26:46.490Z,4.20
2022-11-18T13:29:27.994Z,4.10
2022-11-18T13:32:11.428Z,4.10
2022-11-18T13:34:46.892Z,4.10
2022-11-18T13:37:20.051Z,4.00
2022-11-18T13:39:50.125Z,4.00
2022-11-18T13:42:22.561Z,3.90
2022-11-18T13:44:56.043Z,3.90
2022-11-18T13:47:36.871Z,3.80
2022-11-18T13:50:15.257Z,3.80
2022-11-18T13:52:48.888Z,3.80
2022-11-18T13:55:22.838Z,3.70
2022-11-18T13:57:53.726Z,3.70
2022-11-18T14:00:24.789Z,3.60
2022-11-18T14:02:59.077Z,3.60
2022-11-18T14:05:27.951Z,3.60
2022-11-18T14:08:07.102Z,3.70
2022-11-18T14:10:42.719Z,3.60
2022-11-18T14:13:21.721Z,3.70
2022-11-18T14:15:50.290Z,3.70
2022-11-18T14:18:33.860Z,3.70
2022-11-18T14:21:04.023Z,3.70
2022-11-18T14:23:34.618Z,3.60
2022-11-18T14:26:05.802Z,3.60
2022-11-18T14:28:37.160Z,3.50
2022-11-18T14:31:09.088Z,3.50
2022-11-18T14:33:39.910Z,3.50
2022-11-18T14:36:13.531Z,3.40
2022-11-18T14:39:04.447Z,3.30
2022-11-18T14:41:50.821Z,3.30
2022-11-18T14:44:20.181Z,3.30
2022-11-18T14:46:52.441Z,3.20
2022-11-18T14:49:24.758Z,3.20
2022-11-18T14:51:54.203Z,3.10
2022-11-18T14:54:26.854Z,3.10
2022-11-18T14:56:59.089Z,3.00
2022-11-18T14:59:27.865Z,3.00
2022-11-18T15:01:57.602Z,3.00
2022-11-18T15:04:28.601Z,2.90
2022-11-18T15:06:57.452Z,2.80
2022-11-18T15:09:26.290Z,2.80
2022-11-18T15:11:55.000Z,2.80
2022-11-18T15:14:24.273Z,2.70
2022-11-18T15:16:53.284Z,2.70
2022-11-18T15:19:22.019Z,2.60
2022-11-18T15:21:52.753Z,2.60
2022-11-18T15:24:21.660Z,2.60
2022-11-18T15:26:50.791Z,2.60
2022-11-18T15:29:21.761Z,2.60
2022-11-18T15:31:50.943Z,2.60
2022-11-18T15:34:24.259Z,2.60
2022-11-18T15:36:54.832Z,2.60
2022-11-18T15:39:23.672Z,2.60
2022-11-18T15:41:52.561Z,2.60
2022-11-18T15:44:21.893Z,2.60
2022-11-18T15:46:50.766Z,2.60
2022-11-18T15:49:19.594Z,2.60
2022-11-18T15:51:48.449Z,2.50
2022-11-18T15:54:18.889Z,2.50
2022-11-18T15:56:48.050Z,2.50
2022-11-18T15:59:18.271Z,2.50
2022-11-18T16:01:49.352Z,2.40
2022-11-18T16:04:20.309Z,2.30
2022-11-18T16:06:50.311Z,2.30
2022-11-18T16:09:20.945Z,2.20
2022-11-18T16:12:07.429Z,2.20
2022-11-18T16:14:39.996Z,2.20
2022-11-18T16:17:08.780Z,2.20
2022-11-18T16:19:37.782Z,2.10
2022-11-18T16:22:06.859Z,2.00
2022-11-18T16:24:38.133Z,2.00
2022-11-18T16:27:06.965Z,2.00
2022-11-18T16:29:36.336Z,1.90
2022-11-18T16:32:14.690Z,1.90
2022-11-18T16:34:43.330Z,1.80
2022-11-18T16:37:12.079Z,1.80
2022-11-18T16:39:42.886Z,1.80
2022-11-18T16:42:13.831Z,1.80
2022-11-18T16:44:43.804Z,1.80
2022-11-18T16:47:15.124Z,1.80
2022-11-18T16:49:44.848Z,1.80
2022-11-18T16:52:13.629Z,1.80
2022-11-18T16:54:46.506Z,1.70
2022-11-18T16:57:15.709Z,1.70
2022-11-18T16:59:44.456Z,1.70
2022-11-18T17:02:14.772Z,1.70
2022-11-18T17:04:44.303Z,1.80
2022-11-18T17:07:13.075Z,1.80
2022-11-18T17:09:42.175Z,1.80
2022-11-18T17:12:12.312Z,1.90
2022-11-18T17:14:41.050Z,1.90
2022-11-18T17:17:09.700Z,1.80
2022-11-18T17:19:38.460Z,1.80
2022-11-18T17:22:07.170Z,1.80
2022-11-18T17:24:36.091Z,1.80
2022-11-18T17:27:04.691Z,1.80
2022-11-18T17:29:34.817Z,1.80
2022-11-18T17:32:03.611Z,1.80
2022-11-18T17:34:32.243Z,1.80
2022-11-18T17:37:06.548Z,1.80
2022-11-18T17:39:35.778Z,1.80
2022-11-18T17:42:17.918Z,1.70
2022-11-18T17:44:48.261Z,1.80
2022-11-18T17:47:16.750Z,1.70
2022-11-18T17:49:45.371Z,1.70
2022-11-18T17:52:14.080Z,1.70
2022-11-18T17:54:42.792Z,1.60
2022-11-18T17:57:11.410Z,1.60
2022-11-18T17:59:39.990Z,1.60
2022-11-18T18:02:12.995Z,1.60
2022-11-18T18:04:45.291Z,1.60
2022-11-18T18:07:13.854Z,1.60
2022-11-18T18:09:42.695Z,1.60
2022-11-18T18:12:28.760Z,1.50
2022-11-18T18:14:57.620Z,1.50
2022-11-18T18:17:27.764Z,1.50
2022-11-18T18:19:56.863Z,1.50
2022-11-18T18:22:25.351Z,1.40
2022-11-18T18:24:54.138Z,1.30
2022-11-18T18:27:22.929Z,1.30
2022-11-18T18:29:52.823Z,1.30
2022-11-18T18:32:21.620Z,1.30
2022-11-18T18:34:51.937Z,1.30
2022-11-18T18:37:21.470Z,1.30
2022-11-18T18:39:50.453Z,1.20
2022-11-18T18:42:19.290Z,1.20
2022-11-18T18:45:05.251Z,1.20
2022-11-18T18:47:36.516Z,1.20
2022-11-18T18:50:07.903Z,1.10
2022-11-18T18:52:36.637Z,1.10
2022-11-18T18:55:05.289Z,1.10
2022-11-18T18:57:34.019Z,1.00
2022-11-18T19:00:02.981Z,1.00
2022-11-18T19:02:31.577Z,1.00
2022-11-18T19:05:00.879Z,1.10
2022-11-18T19:07:31.782Z,1.00
2022-11-18T19:10:00.788Z,1.10
2022-11-18T19:12:43.468Z,1.10
2022-11-18T19:15:13.368Z,1.10
2022-11-18T19:17:42.714Z,1.10
2022-11-18T19:20:31.620Z,1.10
2022-11-18T19:23:07.120Z,1.20
2022-11-18T19:25:39.019Z,1.20
2022-11-18T19:28:08.532Z,1.20
2022-11-18T19:30:38.286Z,1.20
2022-11-18T19:33:07.847Z,1.20
2022-11-18T19:35:39.130Z,1.30
2022-11-18T19:38:09.432Z,1.30
2022-11-18T19:40:38.188Z,1.30
2022-11-18T19:43:07.562Z,1.30
2022-11-18T19:45:36.631Z,1.30
2022-11-18T19:48:05.960Z,1.30
2022-11-18T19:50:34.859Z,1.30
2022-11-18T19:53:23.694Z,1.40
2022-11-18T19:55:58.592Z,1.40
2022-11-18T19:58:27.888Z,1.30
2022-11-18T20:00:56.922Z,1.40
2022-11-18T20:03:25.939Z,1.40
2022-11-18T20:05:55.332Z,1.40
2022-11-18T20:08:26.029Z,1.40
2022-11-18T20:10:56.631Z,1.40
2022-11-18T20:13:25.409Z,1.40
2022-11-18T20:15:54.594Z,1.40
2022-11-18T20:18:25.509Z,1.30
2022-11-18T20:20:54.728Z,1.30
2022-11-18T20:23:23.722Z,1.30
2022-11-18T20:25:53.069Z,1.30
2022-11-18T20:28:23.645Z,1.30
2022-11-18T20:30:56.049Z,1.30
2022-11-18T20:33:25.570Z,1.20
2022-11-18T20:35:57.005Z,1.10
2022-11-18T20:38:25.929Z,1.10
2022-11-18T20:40:55.180Z,1.00
2022-11-18T20:43:25.478Z,1.00
2022-11-18T20:45:56.345Z,1.00
2022-11-18T20:48:25.420Z,1.00
2022-11-18T20:50:54.278Z,0.90
2022-11-18T20:53:25.969Z,0.90
2022-11-18T20:55:54.737Z,0.80
2022-11-18T20:58:25.693Z,0.80
2022-11-18T21:00:58.085Z,0.80
2022-11-18T21:03:29.151Z,0.80
2022-11-18T21:05:58.729Z,0.80
2022-11-18T21:08:27.540Z,0.70
2022-11-18T21:10:56.250Z,0.70
2022-11-18T21:13:43.708Z,0.60
2022-11-18T21:16:12.612Z,0.60
2022-11-18T21:18:41.259Z,0.50
2022-11-18T21:21:23.815Z,0.50
2022-11-18T21:23:56.210Z,0.40
2022-11-18T21:26:25.352Z,0.40
2022-11-18T21:28:57.520Z,0.30
2022-11-18T21:31:26.889Z,0.30
2022-11-18T21:33:55.829Z,0.30
2022-11-18T21:36:25.849Z,0.30
2022-11-18T21:38:54.642Z,0.30
2022-11-18T21:41:23.326Z,0.20
2022-11-18T21:44:05.439Z,0.20
2022-11-18T21:46:37.055Z,0.20
2022-11-18T21:49:06.529Z,0.20
2022-11-18T21:51:35.738Z,0.20
2022-11-18T21:54:04.715Z,0.30
2022-11-18T21:56:33.298Z,0.30
2022-11-18T21:59:02.980Z,0.30
2022-11-18T22:01:33.455Z,0.30
2022-11-18T22:04:05.927Z,0.30
2022-11-18T22:06:35.344Z,0.20
2022-11-18T22:09:06.204Z,0.20
2022-11-18T22:11:34.860Z,0.10
2022-11-18T22:14:04.559Z,0.00
2022-11-18T22:16:33.099Z,-0.10
2022-11-18T22:19:19.191Z,-0.20
2022-11-18T22:21:47.878Z,-0.20
2022-11-18T22:24:19.529Z,-0.30
2022-11-18T22:26:48.050Z,-0.20
2022-11-18T22:29:16.777Z,-0.20
2022-11-18T22:31:45.406Z,-0.20
2022-11-18T22:34:15.500Z,-0.10
2022-11-18T22:36:44.040Z,-0.10
2022-11-18T22:39:12.559Z,-0.20
2022-11-18T22:41:58.629Z,-0.20
2022-11-18T22:44:27.621Z,-0.30
2022-11-18T22:46:56.181Z,-0.30
2022-11-18T22:49:26.091Z,-0.30
2022-11-18T22:51:54.639Z,-0.20
2022-11-18T22:54:39.815Z,-0.10
2022-11-18T22:57:09.250Z,-0.10
2022-11-18T22:59:37.720Z,-0.10
2022-11-18T23:02:06.508Z,-0.20
2022-11-18T23:04:36.448Z,-0.20
2022-11-18T23:07:05.216Z,-0.20
2022-11-18T23:09:34.340Z,-0.30
2022-11-18T23:12:34.869Z,-0.30
2022-11-18T23:15:03.357Z,-0.30
2022-11-18T23:17:31.983Z,-0.30
2022-11-18T23:20:01.898Z,-0.30
2022-11-18T23:22:30.459Z,-0.40
2022-11-18T23:24:58.986Z,-0.40
2022-11-18T23:27:27.499Z,-0.40
2022-11-18T23:29:56.069Z,-0.40
2022-11-18T23:32:24.587Z,-0.40
2022-11-18T23:34:53.083Z,-0.50
2022-11-18T23:37:23.033Z,-0.50
2022-11-18T23:39:51.519Z,-0.60
2022-11-18T23:42:20.059Z,-0.60
2022-11-18T23:44:52.721Z,-0.60
2022-11-18T23:47:21.172Z,-0.60
2022-11-18T23:49:49.719Z,-0.60
2022-11-18T23:52:18.168Z,-0.60
2022-11-18T23:54:49.967Z,-0.60
2022-11-18T23:57:18.620Z,-0.60
2022-11-18T23:59:47.132Z,-0.60
